createdAt,value
2023-03-17T00:04:33.126Z,46.80
2023-03-17T00:09:36.401Z,46.90
2023-03-17T00:14:39.797Z,46.90
2023-03-17T00:19:44.856Z,47.00
2023-03-17T00:24:48.518Z,47.10
2023-03-17T00:29:51.837Z,47.30
2023-03-17T00:34:58.011Z,47.30
2023-03-17T00:40:01.687Z,47.30
2023-03-17T00:45:05.659Z,47.40
2023-03-17T00:50:16.043Z,47.50
2023-03-17T00:55:20.166Z,47.50
2023-03-17T01:00:26.544Z,47.60
2023-03-17T01:05:31.354Z,47.60
2023-03-17T01:10:34.808Z,47.60
2023-03-17T01:15:38.365Z,47.70
2023-03-17T01:20:44.157Z,47.70
2023-03-17T01:25:49.220Z,47.80
2023-03-17T01:30:52.579Z,47.80
2023-03-17T01:35:57.627Z,47.80
2023-03-17T01:41:03.468Z,47.90
2023-03-17T01:46:20.801Z,47.90
2023-03-17T01:51:31.972Z,47.90
2023-03-17T01:56:36.430Z,47.90
2023-03-17T02:01:43.893Z,47.90
2023-03-17T02:06:58.134Z,47.90
2023-03-17T02:12:03.908Z,47.90
2023-03-17T02:17:07.440Z,47.90
2023-03-17T02:22:12.813Z,47.90
2023-03-17T02:27:19.240Z,47.90
2023-03-17T02:32:22.722Z,48.00
2023-03-17T02:37:27.742Z,47.80
2023-03-17T02:42:31.146Z,47.90
2023-03-17T02:47:35.757Z,47.90
2023-03-17T02:52:40.532Z,48.00
2023-03-17T02:57:44.146Z,48.00
2023-03-17T03:02:47.571Z,48.00
2023-03-17T03:07:52.830Z,48.00
2023-03-17T03:12:56.415Z,48.20
2023-03-17T03:17:59.848Z,48.20
2023-03-17T03:23:05.899Z,48.20
2023-03-17T03:28:10.161Z,48.30
2023-03-17T03:33:14.471Z,48.30
2023-03-17T03:38:19.639Z,48.30
2023-03-17T03:43:24.165Z,48.50
2023-03-17T03:48:27.622Z,48.40
2023-03-17T03:53:32.641Z,48.50
2023-03-17T03:58:38.963Z,48.60
2023-03-17T04:03:42.273Z,48.50
2023-03-17T04:08:47.123Z,48.50
2023-03-17T04:13:50.465Z,48.50
2023-03-17T04:18:53.958Z,48.60
2023-03-17T04:23:58.754Z,48.50
2023-03-17T04:29:02.150Z,48.60
2023-03-17T04:34:05.721Z,48.60
2023-03-17T04:39:10.540Z,48.70
2023-03-17T04:44:14.650Z,48.70
2023-03-17T04:49:18.266Z,48.70
2023-03-17T04:54:23.058Z,48.70
2023-03-17T04:59:26.834Z,48.80
2023-03-17T05:04:32.086Z,48.70
2023-03-17T05:09:37.282Z,48.70
2023-03-17T05:14:40.784Z,48.90
2023-03-17T05:19:44.187Z,48.80
2023-03-17T05:24:49.077Z,48.90
2023-03-17T05:29:52.605Z,49.00
2023-03-17T05:34:56.051Z,49.00
2023-03-17T05:40:01.158Z,49.10
2023-03-17T05:45:05.320Z,49.20
2023-03-17T05:50:09.727Z,49.20
2023-03-17T05:55:16.399Z,49.30
2023-03-17T06:00:21.565Z,49.30
2023-03-17T06:05:24.975Z,49.40
2023-03-17T06:10:30.683Z,49.40
2023-03-17T06:15:36.328Z,49.80
2023-03-17T06:20:39.794Z,49.70
2023-03-17T06:25:44.669Z,49.70
2023-03-17T06:30:48.065Z,49.70
2023-03-17T06:35:51.866Z,49.70
2023-03-17T06:40:58.038Z,49.80
2023-03-17T06:46:01.559Z,49.90
2023-03-17T06:51:05.396Z,49.90
2023-03-17T06:56:23.527Z,49.90
2023-03-17T07:01:32.438Z,49.90
2023-03-17T07:06:35.872Z,49.80
2023-03-17T07:11:41.356Z,49.90
2023-03-17T07:16:45.386Z,49.80
2023-03-17T07:21:51.457Z,49.80
2023-03-17T07:26:58.258Z,49.60
2023-03-17T07:32:02.223Z,49.70
2023-03-17T07:37:06.535Z,49.70
2023-03-17T07:42:15.453Z,49.70
2023-03-17T07:47:18.964Z,49.70
2023-03-17T07:52:22.639Z,49.70
2023-03-17T07:57:27.476Z,49.60
2023-03-17T08:02:31.905Z,49.60
2023-03-17T08:07:36.245Z,49.60
2023-03-17T08:12:41.761Z,49.50
2023-03-17T08:17:45.193Z,49.40
2023-03-17T08:22:48.486Z,49.40
2023-03-17T08:27:54.080Z,49.30
2023-03-17T08:32:57.512Z,49.30
2023-03-17T08:38:01.489Z,49.20
2023-03-17T08:43:06.538Z,53.70
2023-03-17T08:48:09.925Z,54.60
2023-03-17T08:53:14.318Z,52.80
2023-03-17T08:58:20.232Z,51.50
2023-03-17T09:03:23.631Z,50.40
2023-03-17T09:08:27.776Z,49.80
2023-03-17T09:13:33.331Z,49.30
2023-03-17T09:18:36.918Z,48.70
2023-03-17T09:23:40.540Z,48.70
2023-03-17T09:28:45.466Z,48.30
2023-03-17T09:33:49.002Z,48.10
2023-03-17T09:38:52.525Z,48.10
2023-03-17T09:44:07.814Z,47.90
2023-03-17T09:49:15.065Z,47.40
2023-03-17T09:54:27.207Z,47.40
2023-03-17T09:59:35.423Z,47.20
2023-03-17T10:04:42.366Z,47.10
2023-03-17T10:09:54.101Z,47.20
2023-03-17T10:15:02.808Z,46.90
2023-03-17T10:20:10.496Z,46.70
2023-03-17T10:25:16.807Z,47.10
2023-03-17T10:30:23.598Z,46.70
2023-03-17T10:35:27.772Z,46.40
2023-03-17T10:40:33.085Z,50.70
2023-03-17T10:51:08.648Z,53.10
2023-03-17T10:56:25.120Z,55.00
2023-03-17T11:01:38.769Z,53.90
2023-03-17T11:06:44.958Z,54.10
2023-03-17T11:11:49.975Z,53.00
2023-03-17T11:16:56.953Z,52.20
2023-03-17T11:22:06.458Z,51.10
2023-03-17T11:27:16.684Z,49.50
2023-03-17T11:32:29.789Z,48.80
2023-03-17T11:37:50.611Z,48.30
2023-03-17T11:43:07.274Z,47.90
2023-03-17T11:48:25.203Z,46.30
2023-03-17T11:53:45.182Z,47.20
2023-03-17T11:58:52.933Z,44.70
2023-03-17T12:04:12.302Z,44.80
2023-03-17T12:09:27.041Z,43.10
2023-03-17T12:14:34.528Z,44.80
2023-03-17T12:19:45.726Z,45.00
2023-03-17T12:24:54.694Z,44.10
2023-03-17T12:30:02.612Z,44.40
2023-03-17T12:35:26.321Z,44.50
2023-03-17T12:40:35.691Z,42.80
2023-03-17T12:46:03.030Z,44.00
2023-03-17T12:51:38.438Z,43.60
2023-03-17T12:56:47.185Z,43.30
2023-03-17T13:01:58.889Z,43.50
2023-03-17T13:07:12.559Z,40.80
2023-03-17T13:12:53.045Z,41.00
2023-03-17T13:18:25.015Z,40.00
2023-03-17T13:23:38.954Z,41.70
2023-03-17T13:28:45.525Z,41.90
2023-03-17T13:33:53.330Z,40.90
2023-03-17T13:44:42.304Z,39.80
2023-03-17T13:49:50.714Z,37.60
2023-03-17T13:55:02.746Z,38.00
2023-03-17T14:00:24.377Z,37.60
2023-03-17T14:05:31.807Z,36.90
2023-03-17T14:10:37.451Z,38.10
2023-03-17T14:15:48.239Z,38.40
2023-03-17T14:20:55.533Z,37.60
2023-03-17T14:26:00.645Z,38.20
2023-03-17T14:31:08.207Z,38.80
2023-03-17T14:36:14.717Z,38.30
2023-03-17T14:41:20.277Z,38.80
2023-03-17T14:46:27.535Z,38.90
2023-03-17T14:51:35.908Z,38.90
2023-03-17T14:56:42.154Z,39.70
2023-03-17T15:01:48.707Z,40.50
2023-03-17T15:06:54.705Z,40.70
2023-03-17T15:12:04.172Z,41.00
2023-03-17T15:17:18.358Z,39.80
2023-03-17T15:22:26.318Z,39.40
2023-03-17T15:27:30.854Z,39.70
2023-03-17T15:32:35.697Z,40.30
2023-03-17T15:37:39.173Z,39.80
2023-03-17T15:42:42.808Z,39.80
2023-03-17T15:47:48.471Z,40.10
2023-03-17T15:52:53.870Z,40.60
2023-03-17T15:57:58.172Z,40.20
2023-03-17T16:03:09.157Z,40.70
2023-03-17T16:08:15.763Z,41.10
2023-03-17T16:13:19.448Z,41.30
2023-03-17T16:18:30.848Z,41.40
2023-03-17T16:23:37.702Z,41.40
2023-03-17T16:28:41.021Z,41.40
2023-03-17T16:33:46.716Z,41.00
2023-03-17T16:38:51.066Z,40.60
2023-03-17T16:43:58.776Z,40.70
2023-03-17T16:49:05.301Z,40.50
2023-03-17T16:54:08.849Z,40.30
2023-03-17T16:59:18.993Z,40.60
2023-03-17T17:04:24.454Z,40.40
2023-03-17T17:09:28.400Z,40.50
2023-03-17T17:14:33.634Z,40.80
2023-03-17T17:19:39.423Z,40.90
2023-03-17T17:24:43.857Z,42.40
2023-03-17T17:29:50.502Z,41.90
2023-03-17T17:34:57.809Z,41.30
2023-03-17T17:40:04.046Z,41.10
2023-03-17T17:45:19.569Z,41.60
2023-03-17T17:50:31.220Z,41.30
2023-03-17T17:55:37.374Z,42.50
2023-03-17T18:00:46.838Z,44.50
2023-03-17T18:05:54.563Z,43.00
2023-03-17T18:11:03.489Z,42.30
2023-03-17T18:16:12.974Z,41.90
2023-03-17T18:21:24.187Z,41.90
2023-03-17T18:26:33.800Z,41.50
2023-03-17T18:31:45.882Z,41.70
2023-03-17T18:36:59.209Z,41.70
2023-03-17T18:42:05.662Z,41.50
2023-03-17T18:47:16.478Z,42.00
2023-03-17T18:52:26.941Z,42.00
2023-03-17T18:57:32.633Z,41.70
2023-03-17T19:02:37.547Z,42.60
2023-03-17T19:07:46.121Z,42.30
2023-03-17T19:12:52.785Z,42.20
2023-03-17T19:18:05.206Z,42.20
2023-03-17T19:23:14.408Z,42.60
2023-03-17T19:28:19.532Z,42.80
2023-03-17T19:33:25.053Z,43.40
2023-03-17T19:38:33.453Z,43.00
2023-03-17T19:43:41.193Z,43.30
2023-03-17T19:48:47.751Z,43.00
2023-03-17T19:53:55.445Z,43.10
2023-03-17T19:59:02.803Z,42.80
2023-03-17T20:04:11.615Z,42.90
2023-03-17T20:09:21.606Z,42.80
2023-03-17T20:14:26.790Z,42.70
2023-03-17T20:19:32.207Z,42.70
2023-03-17T20:24:39.766Z,42.70
2023-03-17T20:29:46.003Z,42.80
2023-03-17T20:34:55.701Z,42.80
2023-03-17T20:40:05.981Z,42.80
2023-03-17T20:45:13.906Z,42.90
2023-03-17T20:50:21.489Z,43.00
2023-03-17T20:55:27.711Z,43.10
2023-03-17T21:00:33.085Z,43.20
2023-03-17T21:05:38.110Z,43.20
2023-03-17T21:10:43.922Z,43.30
2023-03-17T21:15:48.119Z,43.40
2023-03-17T21:20:53.163Z,43.50
2023-03-17T21:25:58.866Z,43.60
2023-03-17T21:31:03.800Z,43.70
2023-03-17T21:36:09.380Z,43.70
2023-03-17T21:41:31.201Z,43.90
2023-03-17T21:46:35.766Z,44.00
2023-03-17T21:51:40.750Z,44.00
2023-03-17T21:56:46.423Z,44.10
2023-03-17T22:01:52.157Z,44.20
2023-03-17T22:06:56.098Z,44.20
2023-03-17T22:12:00.910Z,44.20
2023-03-17T22:17:06.327Z,44.30
2023-03-17T22:22:11.096Z,44.30
2023-03-17T22:27:17.079Z,44.30
2023-03-17T22:32:20.604Z,44.50
2023-03-17T22:37:24.875Z,44.40
2023-03-17T22:42:29.699Z,44.50
2023-03-17T22:47:33.460Z,44.60
2023-03-17T22:52:37.250Z,44.60
2023-03-17T22:57:42.286Z,44.70
2023-03-17T23:02:46.556Z,44.70
2023-03-17T23:07:51.597Z,44.60
2023-03-17T23:12:57.775Z,44.70
2023-03-17T23:18:01.208Z,44.80
2023-03-17T23:23:04.861Z,44.80
2023-03-17T23:28:09.901Z,44.80
2023-03-17T23:33:13.637Z,44.80
2023-03-17T23:38:17.336Z,44.80
2023-03-17T23:43:22.470Z,44.80
2023-03-17T23:48:25.842Z,45.00
2023-03-17T23:53:29.150Z,45.00
2023-03-17T23:58:33.968Z,45.00
